sensor_id;sensor_type;location;lat;lon;timestamp;temperature;humidity
36856;DHT22;22788;51.434;6.786;2023-05-07T00:01:47;16.70;99.90
36856;DHT22;22788;51.434;6.786;2023-05-07T00:04:13;16.70;99.90
36856;DHT22;22788;51.434;6.786;2023-05-07T00:06:39;16.70;99.90
36856;DHT22;22788;51.434;6.786;2023-05-07T00:09:05;16.70;99.90
36856;DHT22;22788;51.434;6.786;2023-05-07T00:11:30;16.70;99.90
36856;DHT22;22788;51.434;6.786;2023-05-07T00:13:56;16.70;99.90
36856;DHT22;22788;51.434;6.786;2023-05-07T00:16:22;16.70;99.90
36856;DHT22;22788;51.434;6.786;2023-05-07T00:18:49;16.70;99.90
36856;DHT22;22788;51.434;6.786;2023-05-07T00:21:14;16.70;99.90
36856;DHT22;22788;51.434;6.786;2023-05-07T00:23:40;16.60;99.90
36856;DHT22;22788;51.434;6.786;2023-05-07T00:26:06;16.60;99.90
36856;DHT22;22788;51.434;6.786;2023-05-07T00:28:31;16.60;99.90
36856;DHT22;22788;51.434;6.786;2023-05-07T00:30:57;16.60;99.90
36856;DHT22;22788;51.434;6.786;2023-05-07T00:33:22;16.60;99.90
36856;DHT22;22788;51.434;6.786;2023-05-07T00:35:49;16.60;99.90
36856;DHT22;22788;51.434;6.786;2023-05-07T00:38:15;16.60;99.90
36856;DHT22;22788;51.434;6.786;2023-05-07T00:40:41;16.70;99.90
36856;DHT22;22788;51.434;6.786;2023-05-07T00:43:06;16.60;99.90
36856;DHT22;22788;51.434;6.786;2023-05-07T00:45:33;16.60;99.90
36856;DHT22;22788;51.434;6.786;2023-05-07T00:48:00;16.60;99.90
36856;DHT22;22788;51.434;6.786;2023-05-07T00:50:26;16.60;99.90
36856;DHT22;22788;51.434;6.786;2023-05-07T00:52:54;16.60;99.90
36856;DHT22;22788;51.434;6.786;2023-05-07T00:55:22;16.60;99.90
36856;DHT22;22788;51.434;6.786;2023-05-07T00:57:49;16.60;99.90
36856;DHT22;22788;51.434;6.786;2023-05-07T01:00:15;16.60;99.90
36856;DHT22;22788;51.434;6.786;2023-05-07T01:02:42;16.50;99.90
36856;DHT22;22788;51.434;6.786;2023-05-07T01:05:09;16.60;99.90
36856;DHT22;22788;51.434;6.786;2023-05-07T01:07:36;16.50;99.90
36856;DHT22;22788;51.434;6.786;2023-05-07T01:10:04;16.50;99.90
36856;DHT22;22788;51.434;6.786;2023-05-07T01:12:31;16.50;99.90
36856;DHT22;22788;51.434;6.786;2023-05-07T01:14:56;16.50;99.90
36856;DHT22;22788;51.434;6.786;2023-05-07T01:17:23;16.50;99.90
36856;DHT22;22788;51.434;6.786;2023-05-07T01:19:48;16.50;99.90
36856;DHT22;22788;51.434;6.786;2023-05-07T01:22:15;16.50;99.90
36856;DHT22;22788;51.434;6.786;2023-05-07T01:24:43;16.50;99.90
36856;DHT22;22788;51.434;6.786;2023-05-07T01:27:09;16.50;99.90
36856;DHT22;22788;51.434;6.786;2023-05-07T01:29:34;16.50;99.90
36856;DHT22;22788;51.434;6.786;2023-05-07T01:32:01;16.40;99.90
36856;DHT22;22788;51.434;6.786;2023-05-07T01:34:31;16.40;99.90
36856;DHT22;22788;51.434;6.786;2023-05-07T01:36:58;16.40;99.90
36856;DHT22;22788;51.434;6.786;2023-05-07T01:39:25;16.40;99.90
36856;DHT22;22788;51.434;6.786;2023-05-07T01:41:53;16.40;99.90
36856;DHT22;22788;51.434;6.786;2023-05-07T01:44:19;16.40;99.90
36856;DHT22;22788;51.434;6.786;2023-05-07T01:46:45;16.40;99.90
36856;DHT22;22788;51.434;6.786;2023-05-07T01:49:11;16.40;99.90
36856;DHT22;22788;51.434;6.786;2023-05-07T01:51:37;16.30;99.90
36856;DHT22;22788;51.434;6.786;2023-05-07T01:54:03;16.40;99.90
36856;DHT22;22788;51.434;6.786;2023-05-07T01:56:29;16.40;99.90
36856;DHT22;22788;51.434;6.786;2023-05-07T01:58:55;16.40;99.90
36856;DHT22;22788;51.434;6.786;2023-05-07T02:01:21;16.40;99.90
36856;DHT22;22788;51.434;6.786;2023-05-07T02:03:47;16.40;99.90
36856;DHT22;22788;51.434;6.786;2023-05-07T02:06:12;16.40;99.90
36856;DHT22;22788;51.434;6.786;2023-05-07T02:08:38;16.40;99.90
36856;DHT22;22788;51.434;6.786;2023-05-07T02:11:04;16.40;99.90
36856;DHT22;22788;51.434;6.786;2023-05-07T02:13:31;16.30;99.90
36856;DHT22;22788;51.434;6.786;2023-05-07T02:15:59;16.50;99.90
36856;DHT22;22788;51.434;6.786;2023-05-07T02:18:24;16.30;99.90
36856;DHT22;22788;51.434;6.786;2023-05-07T02:20:50;16.30;99.90
36856;DHT22;22788;51.434;6.786;2023-05-07T02:23:15;16.30;99.90
36856;DHT22;22788;51.434;6.786;2023-05-07T02:25:41;16.20;99.90
36856;DHT22;22788;51.434;6.786;2023-05-07T02:28:07;16.40;99.90
36856;DHT22;22788;51.434;6.786;2023-05-07T02:30:32;16.30;99.90
36856;DHT22;22788;51.434;6.786;2023-05-07T02:32:59;16.60;99.90
36856;DHT22;22788;51.434;6.786;2023-05-07T02:35:25;16.30;99.90
36856;DHT22;22788;51.434;6.786;2023-05-07T02:37:51;16.30;99.90
36856;DHT22;22788;51.434;6.786;2023-05-07T02:40:16;16.30;99.90
36856;DHT22;22788;51.434;6.786;2023-05-07T02:42:42;16.30;99.90
36856;DHT22;22788;51.434;6.786;2023-05-07T02:45:08;16.30;99.90
36856;DHT22;22788;51.434;6.786;2023-05-07T02:47:34;16.30;99.90
36856;DHT22;22788;51.434;6.786;2023-05-07T02:50:01;16.30;99.90
36856;DHT22;22788;51.434;6.786;2023-05-07T02:52:27;16.30;99.90
36856;DHT22;22788;51.434;6.786;2023-05-07T02:54:53;16.30;99.90
36856;DHT22;22788;51.434;6.786;2023-05-07T02:57:18;16.30;99.90
36856;DHT22;22788;51.434;6.786;2023-05-07T02:59:44;16.30;99.90
36856;DHT22;22788;51.434;6.786;2023-05-07T03:02:09;16.30;99.90
36856;DHT22;22788;51.434;6.786;2023-05-07T03:04:35;16.20;99.90
36856;DHT22;22788;51.434;6.786;2023-05-07T03:07:02;16.20;99.90
36856;DHT22;22788;51.434;6.786;2023-05-07T03:09:27;16.20;99.90
36856;DHT22;22788;51.434;6.786;2023-05-07T03:11:53;16.20;99.90
36856;DHT22;22788;51.434;6.786;2023-05-07T03:14:19;16.20;99.90
36856;DHT22;22788;51.434;6.786;2023-05-07T03:16:44;16.20;99.90
36856;DHT22;22788;51.434;6.786;2023-05-07T03:19:10;16.20;99.90
36856;DHT22;22788;51.434;6.786;2023-05-07T03:21:35;16.20;99.90
36856;DHT22;22788;51.434;6.786;2023-05-07T03:24:03;16.20;99.90
36856;DHT22;22788;51.434;6.786;2023-05-07T03:26:28;16.10;99.90
36856;DHT22;22788;51.434;6.786;2023-05-07T03:28:54;16.10;99.90
36856;DHT22;22788;51.434;6.786;2023-05-07T03:31:20;16.10;99.90
36856;DHT22;22788;51.434;6.786;2023-05-07T03:33:52;16.10;99.90
36856;DHT22;22788;51.434;6.786;2023-05-07T03:36:18;16.10;99.90
36856;DHT22;22788;51.434;6.786;2023-05-07T03:38:43;16.20;99.90
36856;DHT22;22788;51.434;6.786;2023-05-07T03:41:11;16.10;99.90
36856;DHT22;22788;51.434;6.786;2023-05-07T03:43:36;16.50;99.90
36856;DHT22;22788;51.434;6.786;2023-05-07T03:46:02;16.10;99.90
36856;DHT22;22788;51.434;6.786;2023-05-07T03:48:27;16.10;99.90
36856;DHT22;22788;51.434;6.786;2023-05-07T03:50:53;16.10;99.90
36856;DHT22;22788;51.434;6.786;2023-05-07T03:53:19;16.10;99.90
36856;DHT22;22788;51.434;6.786;2023-05-07T03:55:44;16.10;99.90
36856;DHT22;22788;51.434;6.786;2023-05-07T03:58:11;16.10;99.90
36856;DHT22;22788;51.434;6.786;2023-05-07T04:00:37;16.10;99.90
36856;DHT22;22788;51.434;6.786;2023-05-07T04:03:02;16.10;99.90
36856;DHT22;22788;51.434;6.786;2023-05-07T04:05:28;16.10;99.90
36856;DHT22;22788;51.434;6.786;2023-05-07T04:07:54;16.10;99.90
36856;DHT22;22788;51.434;6.786;2023-05-07T04:10:19;16.10;99.90
36856;DHT22;22788;51.434;6.786;2023-05-07T04:12:45;16.10;99.90
36856;DHT22;22788;51.434;6.786;2023-05-07T04:15:12;16.10;99.90
36856;DHT22;22788;51.434;6.786;2023-05-07T04:17:38;16.00;99.90
36856;DHT22;22788;51.434;6.786;2023-05-07T04:20:04;16.00;99.90
36856;DHT22;22788;51.434;6.786;2023-05-07T04:22:30;16.10;99.90
36856;DHT22;22788;51.434;6.786;2023-05-07T04:24:56;16.00;99.90
36856;DHT22;22788;51.434;6.786;2023-05-07T04:27:21;16.10;99.90
36856;DHT22;22788;51.434;6.786;2023-05-07T04:29:47;16.10;99.90
36856;DHT22;22788;51.434;6.786;2023-05-07T04:32:14;16.10;99.90
36856;DHT22;22788;51.434;6.786;2023-05-07T04:34:39;16.10;99.90
36856;DHT22;22788;51.434;6.786;2023-05-07T04:37:05;16.10;99.90
36856;DHT22;22788;51.434;6.786;2023-05-07T04:39:30;16.10;99.90
36856;DHT22;22788;51.434;6.786;2023-05-07T04:41:57;16.10;99.90
36856;DHT22;22788;51.434;6.786;2023-05-07T04:44:23;16.10;99.90
36856;DHT22;22788;51.434;6.786;2023-05-07T04:46:48;16.00;99.90
36856;DHT22;22788;51.434;6.786;2023-05-07T04:49:15;16.00;99.90
36856;DHT22;22788;51.434;6.786;2023-05-07T04:51:41;16.00;99.90
36856;DHT22;22788;51.434;6.786;2023-05-07T04:54:06;16.00;99.90
36856;DHT22;22788;51.434;6.786;2023-05-07T04:56:32;16.00;99.90
36856;DHT22;22788;51.434;6.786;2023-05-07T04:58:58;16.00;99.90
36856;DHT22;22788;51.434;6.786;2023-05-07T05:01:23;16.00;99.90
36856;DHT22;22788;51.434;6.786;2023-05-07T05:03:49;16.00;99.90
36856;DHT22;22788;51.434;6.786;2023-05-07T05:06:16;16.00;99.90
36856;DHT22;22788;51.434;6.786;2023-05-07T05:08:41;16.00;99.90
36856;DHT22;22788;51.434;6.786;2023-05-07T05:11:07;16.00;99.90
36856;DHT22;22788;51.434;6.786;2023-05-07T05:13:32;16.10;99.90
36856;DHT22;22788;51.434;6.786;2023-05-07T05:15:58;16.00;99.90
36856;DHT22;22788;51.434;6.786;2023-05-07T05:18:24;16.00;99.90
36856;DHT22;22788;51.434;6.786;2023-05-07T05:20:50;16.00;99.90
36856;DHT22;22788;51.434;6.786;2023-05-07T05:23:17;15.90;99.90
36856;DHT22;22788;51.434;6.786;2023-05-07T05:25:43;16.00;99.90
36856;DHT22;22788;51.434;6.786;2023-05-07T05:28:09;16.00;99.90
36856;DHT22;22788;51.434;6.786;2023-05-07T05:30:34;16.00;99.90
36856;DHT22;22788;51.434;6.786;2023-05-07T05:33:00;15.90;99.90
36856;DHT22;22788;51.434;6.786;2023-05-07T05:35:25;16.00;99.90
36856;DHT22;22788;51.434;6.786;2023-05-07T05:37:51;16.00;99.90
36856;DHT22;22788;51.434;6.786;2023-05-07T05:40:18;16.00;99.90
36856;DHT22;22788;51.434;6.786;2023-05-07T05:42:44;15.90;99.90
36856;DHT22;22788;51.434;6.786;2023-05-07T05:45:10;16.10;99.90
36856;DHT22;22788;51.434;6.786;2023-05-07T05:47:35;15.90;99.90
36856;DHT22;22788;51.434;6.786;2023-05-07T05:50:01;16.00;99.90
36856;DHT22;22788;51.434;6.786;2023-05-07T05:52:27;16.00;99.90
36856;DHT22;22788;51.434;6.786;2023-05-07T05:54:53;16.00;99.90
36856;DHT22;22788;51.434;6.786;2023-05-07T05:57:20;16.00;99.90
36856;DHT22;22788;51.434;6.786;2023-05-07T05:59:46;15.90;99.90
36856;DHT22;22788;51.434;6.786;2023-05-07T06:02:12;16.00;99.90
36856;DHT22;22788;51.434;6.786;2023-05-07T06:04:37;16.00;99.90
36856;DHT22;22788;51.434;6.786;2023-05-07T06:07:03;16.00;99.90
36856;DHT22;22788;51.434;6.786;2023-05-07T06:09:29;16.00;99.90
36856;DHT22;22788;51.434;6.786;2023-05-07T06:11:54;16.00;99.90
36856;DHT22;22788;51.434;6.786;2023-05-07T06:14:21;16.10;99.90
36856;DHT22;22788;51.434;6.786;2023-05-07T06:16:47;16.00;99.90
36856;DHT22;22788;51.434;6.786;2023-05-07T06:19:12;16.10;99.90
36856;DHT22;22788;51.434;6.786;2023-05-07T06:21:39;16.10;99.90
36856;DHT22;22788;51.434;6.786;2023-05-07T06:24:05;16.10;99.90
36856;DHT22;22788;51.434;6.786;2023-05-07T06:26:30;16.10;99.90
36856;DHT22;22788;51.434;6.786;2023-05-07T06:28:56;16.10;99.90
36856;DHT22;22788;51.434;6.786;2023-05-07T06:31:28;16.10;99.90
36856;DHT22;22788;51.434;6.786;2023-05-07T06:33:54;16.10;99.90
36856;DHT22;22788;51.434;6.786;2023-05-07T06:36:20;16.10;99.90
36856;DHT22;22788;51.434;6.786;2023-05-07T06:38:46;16.10;99.90
36856;DHT22;22788;51.434;6.786;2023-05-07T06:41:11;16.10;99.90
36856;DHT22;22788;51.434;6.786;2023-05-07T06:43:37;16.10;99.90
36856;DHT22;22788;51.434;6.786;2023-05-07T06:46:03;16.10;99.90
36856;DHT22;22788;51.434;6.786;2023-05-07T06:48:30;16.20;99.90
36856;DHT22;22788;51.434;6.786;2023-05-07T06:50:55;16.10;99.90
36856;DHT22;22788;51.434;6.786;2023-05-07T06:53:21;16.10;99.90
36856;DHT22;22788;51.434;6.786;2023-05-07T06:55:47;16.20;99.90
36856;DHT22;22788;51.434;6.786;2023-05-07T06:58:12;16.20;99.90
36856;DHT22;22788;51.434;6.786;2023-05-07T07:00:38;16.20;99.90
36856;DHT22;22788;51.434;6.786;2023-05-07T07:03:03;16.40;99.90
36856;DHT22;22788;51.434;6.786;2023-05-07T07:05:30;16.20;99.90
36856;DHT22;22788;51.434;6.786;2023-05-07T07:07:56;16.10;99.90
36856;DHT22;22788;51.434;6.786;2023-05-07T07:10:22;16.20;99.90
36856;DHT22;22788;51.434;6.786;2023-05-07T07:12:49;16.20;99.90
36856;DHT22;22788;51.434;6.786;2023-05-07T07:15:14;16.20;99.90
36856;DHT22;22788;51.434;6.786;2023-05-07T07:17:40;16.20;99.90
36856;DHT22;22788;51.434;6.786;2023-05-07T07:20:07;16.20;99.90
36856;DHT22;22788;51.434;6.786;2023-05-07T07:22:34;16.30;99.90
36856;DHT22;22788;51.434;6.786;2023-05-07T07:24:59;16.30;99.90
36856;DHT22;22788;51.434;6.786;2023-05-07T07:27:25;16.30;99.90
36856;DHT22;22788;51.434;6.786;2023-05-07T07:29:51;16.30;99.90
36856;DHT22;22788;51.434;6.786;2023-05-07T07:32:17;16.30;99.90
36856;DHT22;22788;51.434;6.786;2023-05-07T07:34:42;16.40;99.90
36856;DHT22;22788;51.434;6.786;2023-05-07T07:37:08;16.40;99.90
36856;DHT22;22788;51.434;6.786;2023-05-07T07:39:35;16.40;99.90
36856;DHT22;22788;51.434;6.786;2023-05-07T07:42:01;16.40;99.90
36856;DHT22;22788;51.434;6.786;2023-05-07T07:44:27;16.50;99.90
36856;DHT22;22788;51.434;6.786;2023-05-07T07:46:53;16.50;99.90
36856;DHT22;22788;51.434;6.786;2023-05-07T07:49:19;16.60;99.90
36856;DHT22;22788;51.434;6.786;2023-05-07T07:51:44;16.60;99.90
36856;DHT22;22788;51.434;6.786;2023-05-07T07:54:10;16.50;99.90
36856;DHT22;22788;51.434;6.786;2023-05-07T07:56:37;16.50;99.90
36856;DHT22;22788;51.434;6.786;2023-05-07T07:59:03;16.50;99.90
36856;DHT22;22788;51.434;6.786;2023-05-07T08:01:30;16.60;99.90
36856;DHT22;22788;51.434;6.786;2023-05-07T08:03:56;16.60;99.90
36856;DHT22;22788;51.434;6.786;2023-05-07T08:06:21;16.60;99.90
36856;DHT22;22788;51.434;6.786;2023-05-07T08:08:47;16.60;99.90
36856;DHT22;22788;51.434;6.786;2023-05-07T08:11:13;16.50;99.90
36856;DHT22;22788;51.434;6.786;2023-05-07T08:13:40;16.70;99.90
36856;DHT22;22788;51.434;6.786;2023-05-07T08:16:05;16.80;99.90
36856;DHT22;22788;51.434;6.786;2023-05-07T08:18:31;16.80;99.90
36856;DHT22;22788;51.434;6.786;2023-05-07T08:20:57;16.90;99.90
36856;DHT22;22788;51.434;6.786;2023-05-07T08:23:22;16.90;99.90
36856;DHT22;22788;51.434;6.786;2023-05-07T08:25:48;16.80;99.90
36856;DHT22;22788;51.434;6.786;2023-05-07T08:28:14;16.90;99.90
36856;DHT22;22788;51.434;6.786;2023-05-07T08:30:41;16.90;99.90
36856;DHT22;22788;51.434;6.786;2023-05-07T08:33:08;16.90;99.90
36856;DHT22;22788;51.434;6.786;2023-05-07T08:35:34;16.90;99.90
36856;DHT22;22788;51.434;6.786;2023-05-07T08:38:00;16.90;99.90
36856;DHT22;22788;51.434;6.786;2023-05-07T08:40:26;17.00;99.90
36856;DHT22;22788;51.434;6.786;2023-05-07T08:42:52;17.00;99.90
36856;DHT22;22788;51.434;6.786;2023-05-07T08:45:19;17.00;99.90
36856;DHT22;22788;51.434;6.786;2023-05-07T08:47:49;17.00;99.90
36856;DHT22;22788;51.434;6.786;2023-05-07T08:50:16;17.10;99.90
36856;DHT22;22788;51.434;6.786;2023-05-07T08:52:41;17.20;99.90
36856;DHT22;22788;51.434;6.786;2023-05-07T08:55:08;17.10;99.90
36856;DHT22;22788;51.434;6.786;2023-05-07T08:57:34;17.10;99.90
36856;DHT22;22788;51.434;6.786;2023-05-07T09:00:00;17.20;99.90
36856;DHT22;22788;51.434;6.786;2023-05-07T09:02:26;17.20;99.90
36856;DHT22;22788;51.434;6.786;2023-05-07T09:04:53;17.30;99.90
36856;DHT22;22788;51.434;6.786;2023-05-07T09:07:20;17.50;99.90
36856;DHT22;22788;51.434;6.786;2023-05-07T09:09:47;17.30;99.90
36856;DHT22;22788;51.434;6.786;2023-05-07T09:12:13;17.30;99.90
36856;DHT22;22788;51.434;6.786;2023-05-07T09:14:39;17.30;99.90
36856;DHT22;22788;51.434;6.786;2023-05-07T09:17:04;17.40;99.90
36856;DHT22;22788;51.434;6.786;2023-05-07T09:19:30;17.50;99.90
36856;DHT22;22788;51.434;6.786;2023-05-07T09:22:01;17.70;99.90
36856;DHT22;22788;51.434;6.786;2023-05-07T09:24:27;17.60;99.90
36856;DHT22;22788;51.434;6.786;2023-05-07T09:26:52;17.70;99.90
36856;DHT22;22788;51.434;6.786;2023-05-07T09:29:18;17.70;99.90
36856;DHT22;22788;51.434;6.786;2023-05-07T09:31:43;17.70;99.90
36856;DHT22;22788;51.434;6.786;2023-05-07T09:34:09;17.90;99.90
36856;DHT22;22788;51.434;6.786;2023-05-07T09:36:35;18.00;99.90
36856;DHT22;22788;51.434;6.786;2023-05-07T09:39:02;18.10;99.90
36856;DHT22;22788;51.434;6.786;2023-05-07T09:41:30;17.90;99.90
36856;DHT22;22788;51.434;6.786;2023-05-07T09:43:56;17.90;99.90
36856;DHT22;22788;51.434;6.786;2023-05-07T09:46:26;17.90;99.90
36856;DHT22;22788;51.434;6.786;2023-05-07T09:48:53;18.20;99.90
36856;DHT22;22788;51.434;6.786;2023-05-07T09:51:24;18.10;99.90
36856;DHT22;22788;51.434;6.786;2023-05-07T09:53:50;18.10;99.90
36856;DHT22;22788;51.434;6.786;2023-05-07T09:56:20;18.10;99.90
36856;DHT22;22788;51.434;6.786;2023-05-07T09:58:46;18.10;99.90
36856;DHT22;22788;51.434;6.786;2023-05-07T10:01:12;18.20;99.90
36856;DHT22;22788;51.434;6.786;2023-05-07T10:03:40;18.40;99.90
36856;DHT22;22788;51.434;6.786;2023-05-07T10:06:05;18.40;99.90
36856;DHT22;22788;51.434;6.786;2023-05-07T10:08:32;18.50;99.90
36856;DHT22;22788;51.434;6.786;2023-05-07T10:10:58;18.60;99.90
36856;DHT22;22788;51.434;6.786;2023-05-07T10:13:26;18.50;99.90
36856;DHT22;22788;51.434;6.786;2023-05-07T10:15:52;18.30;99.90
36856;DHT22;22788;51.434;6.786;2023-05-07T10:18:20;18.20;99.90
36856;DHT22;22788;51.434;6.786;2023-05-07T10:20:47;18.30;99.90
36856;DHT22;22788;51.434;6.786;2023-05-07T10:23:14;18.50;99.90
36856;DHT22;22788;51.434;6.786;2023-05-07T10:25:43;18.60;99.90
36856;DHT22;22788;51.434;6.786;2023-05-07T10:28:10;18.70;99.90
36856;DHT22;22788;51.434;6.786;2023-05-07T10:30:48;18.60;99.90
36856;DHT22;22788;51.434;6.786;2023-05-07T10:33:17;18.50;99.90
36856;DHT22;22788;51.434;6.786;2023-05-07T10:35:46;18.60;99.90
36856;DHT22;22788;51.434;6.786;2023-05-07T10:38:13;18.50;99.90
36856;DHT22;22788;51.434;6.786;2023-05-07T10:40:38;18.50;99.90
36856;DHT22;22788;51.434;6.786;2023-05-07T10:43:05;18.60;99.90
36856;DHT22;22788;51.434;6.786;2023-05-07T10:45:31;18.60;99.90
36856;DHT22;22788;51.434;6.786;2023-05-07T10:48:09;18.60;99.90
36856;DHT22;22788;51.434;6.786;2023-05-07T10:50:35;18.70;99.90
36856;DHT22;22788;51.434;6.786;2023-05-07T10:53:23;18.80;99.90
36856;DHT22;22788;51.434;6.786;2023-05-07T10:55:51;18.70;99.90
36856;DHT22;22788;51.434;6.786;2023-05-07T10:58:23;18.70;99.90
36856;DHT22;22788;51.434;6.786;2023-05-07T11:00:49;18.60;99.90
36856;DHT22;22788;51.434;6.786;2023-05-07T11:03:16;18.80;99.90
36856;DHT22;22788;51.434;6.786;2023-05-07T11:05:42;18.70;99.90
36856;DHT22;22788;51.434;6.786;2023-05-07T11:08:08;18.70;99.90
36856;DHT22;22788;51.434;6.786;2023-05-07T11:10:51;18.90;99.90
36856;DHT22;22788;51.434;6.786;2023-05-07T11:13:17;19.10;99.90
36856;DHT22;22788;51.434;6.786;2023-05-07T11:15:44;18.80;99.90
36856;DHT22;22788;51.434;6.786;2023-05-07T11:18:11;18.80;99.90
36856;DHT22;22788;51.434;6.786;2023-05-07T11:20:53;18.60;99.90
36856;DHT22;22788;51.434;6.786;2023-05-07T11:23:56;18.70;99.90
36856;DHT22;22788;51.434;6.786;2023-05-07T11:26:22;18.70;99.90
36856;DHT22;22788;51.434;6.786;2023-05-07T11:28:48;18.90;99.90
36856;DHT22;22788;51.434;6.786;2023-05-07T11:31:14;19.00;99.90
36856;DHT22;22788;51.434;6.786;2023-05-07T11:33:45;19.00;99.90
36856;DHT22;22788;51.434;6.786;2023-05-07T11:36:13;19.20;99.90
36856;DHT22;22788;51.434;6.786;2023-05-07T11:38:38;19.30;99.90
36856;DHT22;22788;51.434;6.786;2023-05-07T11:41:04;19.20;99.90
36856;DHT22;22788;51.434;6.786;2023-05-07T11:43:30;19.20;99.90
36856;DHT22;22788;51.434;6.786;2023-05-07T11:46:05;19.30;99.90
36856;DHT22;22788;51.434;6.786;2023-05-07T11:48:31;19.20;99.90
36856;DHT22;22788;51.434;6.786;2023-05-07T11:51:00;19.20;99.90
36856;DHT22;22788;51.434;6.786;2023-05-07T11:53:36;19.30;99.90
36856;DHT22;22788;51.434;6.786;2023-05-07T11:56:06;19.40;99.90
36856;DHT22;22788;51.434;6.786;2023-05-07T11:58:32;19.60;99.90
36856;DHT22;22788;51.434;6.786;2023-05-07T12:00:57;19.60;99.90
36856;DHT22;22788;51.434;6.786;2023-05-07T12:03:23;19.60;99.90
36856;DHT22;22788;51.434;6.786;2023-05-07T12:05:49;19.70;99.90
36856;DHT22;22788;51.434;6.786;2023-05-07T12:08:14;19.50;99.90
36856;DHT22;22788;51.434;6.786;2023-05-07T12:10:42;19.50;99.90
36856;DHT22;22788;51.434;6.786;2023-05-07T12:13:14;19.60;99.90
36856;DHT22;22788;51.434;6.786;2023-05-07T12:15:40;19.50;99.90
36856;DHT22;22788;51.434;6.786;2023-05-07T12:18:06;19.60;99.90
36856;DHT22;22788;51.434;6.786;2023-05-07T12:20:33;19.60;99.90
36856;DHT22;22788;51.434;6.786;2023-05-07T12:22:59;19.50;99.90
36856;DHT22;22788;51.434;6.786;2023-05-07T12:25:25;19.50;99.90
36856;DHT22;22788;51.434;6.786;2023-05-07T12:27:53;19.40;99.90
36856;DHT22;22788;51.434;6.786;2023-05-07T12:30:18;19.40;99.90
36856;DHT22;22788;51.434;6.786;2023-05-07T12:32:45;19.40;99.90
36856;DHT22;22788;51.434;6.786;2023-05-07T12:35:10;19.50;99.90
36856;DHT22;22788;51.434;6.786;2023-05-07T12:37:36;19.40;99.90
36856;DHT22;22788;51.434;6.786;2023-05-07T12:40:06;19.40;99.90
36856;DHT22;22788;51.434;6.786;2023-05-07T12:42:33;19.40;99.90
36856;DHT22;22788;51.434;6.786;2023-05-07T12:45:07;19.50;99.90
36856;DHT22;22788;51.434;6.786;2023-05-07T12:47:33;19.40;99.90
36856;DHT22;22788;51.434;6.786;2023-05-07T12:49:59;19.50;99.90
36856;DHT22;22788;51.434;6.786;2023-05-07T12:52:25;19.50;99.90
36856;DHT22;22788;51.434;6.786;2023-05-07T12:54:50;19.60;99.90
36856;DHT22;22788;51.434;6.786;2023-05-07T12:57:19;19.60;99.90
36856;DHT22;22788;51.434;6.786;2023-05-07T12:59:44;19.60;99.90
36856;DHT22;22788;51.434;6.786;2023-05-07T13:02:11;19.70;99.90
36856;DHT22;22788;51.434;6.786;2023-05-07T13:04:37;19.70;99.90
36856;DHT22;22788;51.434;6.786;2023-05-07T13:07:03;19.70;99.90
36856;DHT22;22788;51.434;6.786;2023-05-07T13:09:28;19.60;99.90
36856;DHT22;22788;51.434;6.786;2023-05-07T13:11:54;19.50;99.90
36856;DHT22;22788;51.434;6.786;2023-05-07T13:14:19;19.40;99.90
36856;DHT22;22788;51.434;6.786;2023-05-07T13:16:45;19.40;99.90
36856;DHT22;22788;51.434;6.786;2023-05-07T13:19:12;19.40;99.90
36856;DHT22;22788;51.434;6.786;2023-05-07T13:21:38;19.30;99.90
36856;DHT22;22788;51.434;6.786;2023-05-07T13:24:04;19.30;99.90
36856;DHT22;22788;51.434;6.786;2023-05-07T13:26:30;19.10;99.90
36856;DHT22;22788;51.434;6.786;2023-05-07T13:28:56;19.10;99.90
36856;DHT22;22788;51.434;6.786;2023-05-07T13:31:22;19.00;99.90
36856;DHT22;22788;51.434;6.786;2023-05-07T13:33:47;18.90;99.90
36856;DHT22;22788;51.434;6.786;2023-05-07T13:36:14;18.80;99.90
36856;DHT22;22788;51.434;6.786;2023-05-07T13:38:40;18.70;99.90
36856;DHT22;22788;51.434;6.786;2023-05-07T13:41:06;18.60;99.90
36856;DHT22;22788;51.434;6.786;2023-05-07T13:43:31;18.60;99.90
36856;DHT22;22788;51.434;6.786;2023-05-07T13:45:57;18.70;99.90
36856;DHT22;22788;51.434;6.786;2023-05-07T13:48:23;18.70;99.90
36856;DHT22;22788;51.434;6.786;2023-05-07T13:50:48;18.60;99.90
36856;DHT22;22788;51.434;6.786;2023-05-07T13:53:15;18.70;99.90
36856;DHT22;22788;51.434;6.786;2023-05-07T13:55:41;18.50;99.90
36856;DHT22;22788;51.434;6.786;2023-05-07T13:58:06;18.50;99.90
36856;DHT22;22788;51.434;6.786;2023-05-07T14:00:32;18.60;99.90
36856;DHT22;22788;51.434;6.786;2023-05-07T14:02:57;18.60;99.90
36856;DHT22;22788;51.434;6.786;2023-05-07T14:05:23;18.60;99.90
36856;DHT22;22788;51.434;6.786;2023-05-07T14:07:49;18.60;99.90
36856;DHT22;22788;51.434;6.786;2023-05-07T14:10:16;18.60;99.90
36856;DHT22;22788;51.434;6.786;2023-05-07T14:12:42;18.60;99.90
36856;DHT22;22788;51.434;6.786;2023-05-07T14:15:08;18.60;99.90
36856;DHT22;22788;51.434;6.786;2023-05-07T14:17:34;18.60;99.90
36856;DHT22;22788;51.434;6.786;2023-05-07T14:19:59;18.60;99.90
36856;DHT22;22788;51.434;6.786;2023-05-07T14:22:25;18.60;99.90
36856;DHT22;22788;51.434;6.786;2023-05-07T14:24:51;18.50;99.90
36856;DHT22;22788;51.434;6.786;2023-05-07T14:27:18;18.50;99.90
36856;DHT22;22788;51.434;6.786;2023-05-07T14:29:43;18.60;99.90
36856;DHT22;22788;51.434;6.786;2023-05-07T14:32:09;18.60;99.90
36856;DHT22;22788;51.434;6.786;2023-05-07T14:34:38;18.60;99.90
36856;DHT22;22788;51.434;6.786;2023-05-07T14:37:04;18.50;99.90
36856;DHT22;22788;51.434;6.786;2023-05-07T14:39:29;18.50;99.90
36856;DHT22;22788;51.434;6.786;2023-05-07T14:41:55;18.40;99.90
36856;DHT22;22788;51.434;6.786;2023-05-07T14:44:23;18.50;99.90
36856;DHT22;22788;51.434;6.786;2023-05-07T14:46:49;18.50;99.90
36856;DHT22;22788;51.434;6.786;2023-05-07T14:49:15;18.50;99.90
36856;DHT22;22788;51.434;6.786;2023-05-07T14:51:57;18.40;99.90
36856;DHT22;22788;51.434;6.786;2023-05-07T14:54:23;18.40;99.90
36856;DHT22;22788;51.434;6.786;2023-05-07T14:56:48;18.70;99.90
36856;DHT22;22788;51.434;6.786;2023-05-07T14:59:14;18.40;99.90
36856;DHT22;22788;51.434;6.786;2023-05-07T15:01:41;18.40;99.90
36856;DHT22;22788;51.434;6.786;2023-05-07T15:04:06;18.30;99.90
36856;DHT22;22788;51.434;6.786;2023-05-07T15:06:32;18.30;99.90
36856;DHT22;22788;51.434;6.786;2023-05-07T15:08:58;18.30;99.90
36856;DHT22;22788;51.434;6.786;2023-05-07T15:11:23;18.30;99.90
36856;DHT22;22788;51.434;6.786;2023-05-07T15:13:49;18.30;99.90
36856;DHT22;22788;51.434;6.786;2023-05-07T15:16:15;18.30;99.90
36856;DHT22;22788;51.434;6.786;2023-05-07T15:18:42;18.30;99.90
36856;DHT22;22788;51.434;6.786;2023-05-07T15:21:08;18.30;99.90
36856;DHT22;22788;51.434;6.786;2023-05-07T15:23:33;18.30;99.90
36856;DHT22;22788;51.434;6.786;2023-05-07T15:25:59;18.30;99.90